sensor_id;sensor_type;location;lat;lon;timestamp;P1;durP1;ratioP1;P2;durP2;ratioP2
75698;SDS011;64313;51.018;13.742;2023-05-10T00:01:23;3.90;;;1.75;;
75698;SDS011;64313;51.018;13.742;2023-05-10T00:03:49;5.22;;;1.48;;
75698;SDS011;64313;51.018;13.742;2023-05-10T00:06:14;4.22;;;1.40;;
75698;SDS011;64313;51.018;13.742;2023-05-10T00:08:40;6.18;;;1.60;;
75698;SDS011;64313;51.018;13.742;2023-05-10T00:11:05;4.28;;;1.38;;
75698;SDS011;64313;51.018;13.742;2023-05-10T00:13:31;3.88;;;1.40;;
75698;SDS011;64313;51.018;13.742;2023-05-10T00:15:57;3.97;;;1.60;;
75698;SDS011;64313;51.018;13.742;2023-05-10T00:18:22;3.30;;;1.42;;
75698;SDS011;64313;51.018;13.742;2023-05-10T00:20:47;4.10;;;1.55;;
75698;SDS011;64313;51.018;13.742;2023-05-10T00:23:13;4.03;;;1.67;;
75698;SDS011;64313;51.018;13.742;2023-05-10T00:25:39;4.72;;;1.63;;
75698;SDS011;64313;51.018;13.742;2023-05-10T00:28:04;3.85;;;1.50;;
75698;SDS011;64313;51.018;13.742;2023-05-10T00:30:29;3.67;;;1.35;;
75698;SDS011;64313;51.018;13.742;2023-05-10T00:32:55;4.47;;;1.60;;
75698;SDS011;64313;51.018;13.742;2023-05-10T00:35:20;4.53;;;1.73;;
75698;SDS011;64313;51.018;13.742;2023-05-10T00:37:46;3.85;;;1.75;;
75698;SDS011;64313;51.018;13.742;2023-05-10T00:40:13;4.45;;;1.60;;
75698;SDS011;64313;51.018;13.742;2023-05-10T00:42:41;5.18;;;1.40;;
75698;SDS011;64313;51.018;13.742;2023-05-10T00:45:06;5.30;;;1.73;;
75698;SDS011;64313;51.018;13.742;2023-05-10T00:47:32;4.00;;;1.60;;
75698;SDS011;64313;51.018;13.742;2023-05-10T00:49:58;4.88;;;1.38;;
75698;SDS011;64313;51.018;13.742;2023-05-10T00:52:25;3.72;;;1.40;;
75698;SDS011;64313;51.018;13.742;2023-05-10T00:54:52;4.85;;;1.27;;
75698;SDS011;64313;51.018;13.742;2023-05-10T00:57:17;4.22;;;1.48;;
75698;SDS011;64313;51.018;13.742;2023-05-10T00:59:43;3.85;;;1.55;;
75698;SDS011;64313;51.018;13.742;2023-05-10T01:02:08;3.85;;;1.63;;
75698;SDS011;64313;51.018;13.742;2023-05-10T01:04:34;3.97;;;1.48;;
75698;SDS011;64313;51.018;13.742;2023-05-10T01:07:00;3.42;;;1.50;;
75698;SDS011;64313;51.018;13.742;2023-05-10T01:09:26;4.28;;;1.42;;
75698;SDS011;64313;51.018;13.742;2023-05-10T01:11:51;3.40;;;1.40;;
75698;SDS011;64313;51.018;13.742;2023-05-10T01:14:17;3.35;;;1.42;;
75698;SDS011;64313;51.018;13.742;2023-05-10T01:16:44;3.90;;;1.50;;
75698;SDS011;64313;51.018;13.742;2023-05-10T01:19:12;3.60;;;1.30;;
75698;SDS011;64313;51.018;13.742;2023-05-10T01:27:33;4.05;;;1.40;;
75698;SDS011;64313;51.018;13.742;2023-05-10T01:30:18;7.03;;;1.40;;
75698;SDS011;64313;51.018;13.742;2023-05-10T01:35:34;4.53;;;1.50;;
75698;SDS011;64313;51.018;13.742;2023-05-10T01:38:19;4.82;;;1.60;;
75698;SDS011;64313;51.018;13.742;2023-05-10T01:43:32;5.38;;;1.52;;
75698;SDS011;64313;51.018;13.742;2023-05-10T01:46:05;7.63;;;2.03;;
75698;SDS011;64313;51.018;13.742;2023-05-10T01:48:38;5.35;;;1.50;;
75698;SDS011;64313;51.018;13.742;2023-05-10T01:51:12;4.50;;;1.50;;
75698;SDS011;64313;51.018;13.742;2023-05-10T01:53:39;3.92;;;1.33;;
75698;SDS011;64313;51.018;13.742;2023-05-10T01:56:05;4.00;;;1.67;;
75698;SDS011;64313;51.018;13.742;2023-05-10T01:58:33;3.28;;;1.20;;
75698;SDS011;64313;51.018;13.742;2023-05-10T02:01:02;4.00;;;1.40;;
75698;SDS011;64313;51.018;13.742;2023-05-10T02:03:29;3.70;;;1.40;;
75698;SDS011;64313;51.018;13.742;2023-05-10T02:05:57;3.70;;;1.60;;
75698;SDS011;64313;51.018;13.742;2023-05-10T02:08:24;3.97;;;1.48;;
75698;SDS011;64313;51.018;13.742;2023-05-10T02:10:50;3.92;;;1.50;;
75698;SDS011;64313;51.018;13.742;2023-05-10T02:13:18;4.30;;;1.45;;
75698;SDS011;64313;51.018;13.742;2023-05-10T02:15:45;3.95;;;1.52;;
75698;SDS011;64313;51.018;13.742;2023-05-10T02:18:13;4.38;;;1.50;;
75698;SDS011;64313;51.018;13.742;2023-05-10T02:20:39;3.65;;;1.52;;
75698;SDS011;64313;51.018;13.742;2023-05-10T02:23:04;3.65;;;1.50;;
75698;SDS011;64313;51.018;13.742;2023-05-10T02:25:31;4.75;;;1.48;;
75698;SDS011;64313;51.018;13.742;2023-05-10T02:27:57;3.22;;;1.30;;
75698;SDS011;64313;51.018;13.742;2023-05-10T02:30:26;4.32;;;1.40;;
75698;SDS011;64313;51.018;13.742;2023-05-10T02:32:53;3.85;;;1.40;;
75698;SDS011;64313;51.018;13.742;2023-05-10T02:35:22;5.22;;;1.40;;
75698;SDS011;64313;51.018;13.742;2023-05-10T02:37:50;5.80;;;1.50;;
75698;SDS011;64313;51.018;13.742;2023-05-10T02:40:16;4.13;;;1.40;;
75698;SDS011;64313;51.018;13.742;2023-05-10T02:42:43;4.05;;;1.40;;
75698;SDS011;64313;51.018;13.742;2023-05-10T02:45:11;3.45;;;1.40;;
75698;SDS011;64313;51.018;13.742;2023-05-10T02:47:41;4.40;;;1.40;;
75698;SDS011;64313;51.018;13.742;2023-05-10T02:50:06;3.97;;;1.50;;
75698;SDS011;64313;51.018;13.742;2023-05-10T02:52:39;3.05;;;1.30;;
75698;SDS011;64313;51.018;13.742;2023-05-10T02:55:12;3.25;;;1.40;;
75698;SDS011;64313;51.018;13.742;2023-05-10T02:57:46;5.53;;;1.65;;
75698;SDS011;64313;51.018;13.742;2023-05-10T03:00:16;4.80;;;1.40;;
75698;SDS011;64313;51.018;13.742;2023-05-10T03:02:41;5.22;;;1.45;;
75698;SDS011;64313;51.018;13.742;2023-05-10T03:05:07;3.60;;;1.52;;
75698;SDS011;64313;51.018;13.742;2023-05-10T03:07:33;3.85;;;1.58;;
75698;SDS011;64313;51.018;13.742;2023-05-10T03:09:59;3.92;;;1.63;;
75698;SDS011;64313;51.018;13.742;2023-05-10T03:17:55;4.50;;;1.60;;
75698;SDS011;64313;51.018;13.742;2023-05-10T03:20:41;4.03;;;1.65;;
75698;SDS011;64313;51.018;13.742;2023-05-10T03:25:53;4.47;;;1.50;;
75698;SDS011;64313;51.018;13.742;2023-05-10T03:28:20;5.95;;;1.70;;
75698;SDS011;64313;51.018;13.742;2023-05-10T03:30:46;3.47;;;1.35;;
75698;SDS011;64313;51.018;13.742;2023-05-10T03:33:13;3.78;;;1.50;;
75698;SDS011;64313;51.018;13.742;2023-05-10T03:35:41;5.35;;;1.40;;
75698;SDS011;64313;51.018;13.742;2023-05-10T03:38:07;4.10;;;1.48;;
75698;SDS011;64313;51.018;13.742;2023-05-10T03:40:32;2.80;;;1.25;;
75698;SDS011;64313;51.018;13.742;2023-05-10T03:42:58;3.95;;;1.33;;
75698;SDS011;64313;51.018;13.742;2023-05-10T03:45:25;5.18;;;1.48;;
75698;SDS011;64313;51.018;13.742;2023-05-10T03:47:50;3.72;;;1.60;;
75698;SDS011;64313;51.018;13.742;2023-05-10T03:50:16;4.53;;;1.42;;
75698;SDS011;64313;51.018;13.742;2023-05-10T03:52:42;3.80;;;1.42;;
75698;SDS011;64313;51.018;13.742;2023-05-10T03:55:07;3.67;;;1.60;;
75698;SDS011;64313;51.018;13.742;2023-05-10T03:57:33;4.82;;;1.50;;
75698;SDS011;64313;51.018;13.742;2023-05-10T03:59:58;4.68;;;1.42;;
75698;SDS011;64313;51.018;13.742;2023-05-10T04:02:25;4.35;;;1.45;;
75698;SDS011;64313;51.018;13.742;2023-05-10T04:04:50;5.05;;;1.83;;
75698;SDS011;64313;51.018;13.742;2023-05-10T04:07:16;3.83;;;1.40;;
75698;SDS011;64313;51.018;13.742;2023-05-10T04:09:43;3.75;;;1.48;;
75698;SDS011;64313;51.018;13.742;2023-05-10T04:12:08;4.10;;;1.60;;
75698;SDS011;64313;51.018;13.742;2023-05-10T04:14:33;3.63;;;1.42;;
75698;SDS011;64313;51.018;13.742;2023-05-10T04:16:59;3.80;;;1.60;;
75698;SDS011;64313;51.018;13.742;2023-05-10T04:19:28;3.33;;;1.40;;
75698;SDS011;64313;51.018;13.742;2023-05-10T04:21:56;3.55;;;1.20;;
75698;SDS011;64313;51.018;13.742;2023-05-10T04:24:22;3.65;;;1.55;;
75698;SDS011;64313;51.018;13.742;2023-05-10T04:26:48;3.20;;;1.30;;
75698;SDS011;64313;51.018;13.742;2023-05-10T04:29:13;4.22;;;1.50;;
75698;SDS011;64313;51.018;13.742;2023-05-10T04:31:38;3.80;;;1.50;;
75698;SDS011;64313;51.018;13.742;2023-05-10T04:34:04;4.20;;;1.58;;
75698;SDS011;64313;51.018;13.742;2023-05-10T04:36:30;3.30;;;1.30;;
75698;SDS011;64313;51.018;13.742;2023-05-10T04:38:55;4.28;;;1.48;;
75698;SDS011;64313;51.018;13.742;2023-05-10T04:41:20;5.45;;;1.40;;
75698;SDS011;64313;51.018;13.742;2023-05-10T04:43:47;5.40;;;1.70;;
75698;SDS011;64313;51.018;13.742;2023-05-10T04:46:14;5.05;;;1.30;;
75698;SDS011;64313;51.018;13.742;2023-05-10T04:48:39;3.17;;;1.30;;
75698;SDS011;64313;51.018;13.742;2023-05-10T04:51:05;3.58;;;1.45;;
75698;SDS011;64313;51.018;13.742;2023-05-10T04:53:31;3.50;;;1.40;;
75698;SDS011;64313;51.018;13.742;2023-05-10T04:55:57;3.35;;;1.23;;
75698;SDS011;64313;51.018;13.742;2023-05-10T04:58:22;2.97;;;1.30;;
75698;SDS011;64313;51.018;13.742;2023-05-10T05:00:47;5.40;;;1.52;;
75698;SDS011;64313;51.018;13.742;2023-05-10T05:03:14;3.30;;;1.38;;
75698;SDS011;64313;51.018;13.742;2023-05-10T05:05:39;3.78;;;1.40;;
75698;SDS011;64313;51.018;13.742;2023-05-10T05:08:05;3.95;;;1.42;;
75698;SDS011;64313;51.018;13.742;2023-05-10T05:10:30;4.68;;;1.48;;
75698;SDS011;64313;51.018;13.742;2023-05-10T05:12:55;3.92;;;1.50;;
75698;SDS011;64313;51.018;13.742;2023-05-10T05:15:24;3.50;;;1.30;;
75698;SDS011;64313;51.018;13.742;2023-05-10T05:17:52;3.22;;;1.35;;
75698;SDS011;64313;51.018;13.742;2023-05-10T05:20:18;4.05;;;1.30;;
75698;SDS011;64313;51.018;13.742;2023-05-10T05:22:44;3.67;;;1.52;;
75698;SDS011;64313;51.018;13.742;2023-05-10T05:25:10;5.05;;;1.60;;
75698;SDS011;64313;51.018;13.742;2023-05-10T05:27:42;4.30;;;2.00;;
75698;SDS011;64313;51.018;13.742;2023-05-10T05:30:15;5.32;;;1.50;;
75698;SDS011;64313;51.018;13.742;2023-05-10T05:32:40;4.53;;;1.50;;
75698;SDS011;64313;51.018;13.742;2023-05-10T05:35:09;4.43;;;1.23;;
75698;SDS011;64313;51.018;13.742;2023-05-10T05:37:34;4.30;;;1.40;;
75698;SDS011;64313;51.018;13.742;2023-05-10T05:40:00;3.55;;;1.30;;
75698;SDS011;64313;51.018;13.742;2023-05-10T05:42:26;4.47;;;1.50;;
75698;SDS011;64313;51.018;13.742;2023-05-10T05:44:52;6.88;;;1.48;;
75698;SDS011;64313;51.018;13.742;2023-05-10T05:47:17;5.53;;;1.60;;
75698;SDS011;64313;51.018;13.742;2023-05-10T05:49:43;6.35;;;1.75;;
75698;SDS011;64313;51.018;13.742;2023-05-10T05:52:10;5.90;;;1.60;;
75698;SDS011;64313;51.018;13.742;2023-05-10T05:54:36;5.63;;;1.60;;
75698;SDS011;64313;51.018;13.742;2023-05-10T05:57:01;4.43;;;1.80;;
75698;SDS011;64313;51.018;13.742;2023-05-10T05:59:27;4.13;;;1.40;;
75698;SDS011;64313;51.018;13.742;2023-05-10T06:01:52;4.35;;;1.90;;
75698;SDS011;64313;51.018;13.742;2023-05-10T06:04:18;5.90;;;1.70;;
75698;SDS011;64313;51.018;13.742;2023-05-10T06:06:44;5.80;;;1.70;;
75698;SDS011;64313;51.018;13.742;2023-05-10T06:09:11;4.95;;;1.58;;
75698;SDS011;64313;51.018;13.742;2023-05-10T06:11:36;6.15;;;1.58;;
75698;SDS011;64313;51.018;13.742;2023-05-10T06:14:03;6.43;;;1.63;;
75698;SDS011;64313;51.018;13.742;2023-05-10T06:16:30;4.00;;;1.50;;
75698;SDS011;64313;51.018;13.742;2023-05-10T06:18:57;4.65;;;1.42;;
75698;SDS011;64313;51.018;13.742;2023-05-10T06:21:22;4.72;;;1.42;;
75698;SDS011;64313;51.018;13.742;2023-05-10T06:23:47;3.90;;;1.40;;
75698;SDS011;64313;51.018;13.742;2023-05-10T06:26:13;4.00;;;1.40;;
75698;SDS011;64313;51.018;13.742;2023-05-10T06:28:39;4.00;;;1.90;;
75698;SDS011;64313;51.018;13.742;2023-05-10T06:31:05;4.70;;;1.70;;
75698;SDS011;64313;51.018;13.742;2023-05-10T06:33:31;5.57;;;1.50;;
75698;SDS011;64313;51.018;13.742;2023-05-10T06:35:57;5.00;;;1.65;;
75698;SDS011;64313;51.018;13.742;2023-05-10T06:38:22;4.30;;;1.50;;
75698;SDS011;64313;51.018;13.742;2023-05-10T06:40:48;3.90;;;1.58;;
75698;SDS011;64313;51.018;13.742;2023-05-10T06:43:13;5.10;;;1.55;;
75698;SDS011;64313;51.018;13.742;2023-05-10T06:45:39;4.70;;;1.70;;
75698;SDS011;64313;51.018;13.742;2023-05-10T06:48:04;4.30;;;1.50;;
75698;SDS011;64313;51.018;13.742;2023-05-10T06:50:29;5.47;;;1.50;;
75698;SDS011;64313;51.018;13.742;2023-05-10T06:52:55;3.30;;;1.50;;
75698;SDS011;64313;51.018;13.742;2023-05-10T06:55:20;3.85;;;1.73;;
75698;SDS011;64313;51.018;13.742;2023-05-10T06:57:46;5.68;;;1.65;;
75698;SDS011;64313;51.018;13.742;2023-05-10T07:00:12;3.95;;;1.63;;
75698;SDS011;64313;51.018;13.742;2023-05-10T07:02:38;3.67;;;1.48;;
75698;SDS011;64313;51.018;13.742;2023-05-10T07:05:04;4.35;;;1.40;;
75698;SDS011;64313;51.018;13.742;2023-05-10T07:07:29;3.72;;;1.70;;
75698;SDS011;64313;51.018;13.742;2023-05-10T07:09:55;4.30;;;1.70;;
75698;SDS011;64313;51.018;13.742;2023-05-10T07:12:21;6.05;;;1.73;;
75698;SDS011;64313;51.018;13.742;2023-05-10T07:14:46;4.43;;;1.60;;
75698;SDS011;64313;51.018;13.742;2023-05-10T07:17:12;3.53;;;1.70;;
75698;SDS011;64313;51.018;13.742;2023-05-10T07:19:37;5.15;;;1.73;;
75698;SDS011;64313;51.018;13.742;2023-05-10T07:22:02;4.57;;;1.65;;
75698;SDS011;64313;51.018;13.742;2023-05-10T07:24:28;4.28;;;1.77;;
75698;SDS011;64313;51.018;13.742;2023-05-10T07:26:53;5.82;;;1.73;;
75698;SDS011;64313;51.018;13.742;2023-05-10T07:29:18;4.45;;;1.67;;
75698;SDS011;64313;51.018;13.742;2023-05-10T07:31:44;4.25;;;1.92;;
75698;SDS011;64313;51.018;13.742;2023-05-10T07:34:09;4.43;;;1.63;;
75698;SDS011;64313;51.018;13.742;2023-05-10T07:36:35;4.63;;;1.52;;
75698;SDS011;64313;51.018;13.742;2023-05-10T07:39:00;5.47;;;2.08;;
75698;SDS011;64313;51.018;13.742;2023-05-10T07:41:25;4.63;;;1.80;;
75698;SDS011;64313;51.018;13.742;2023-05-10T07:43:51;27.92;;;4.85;;
75698;SDS011;64313;51.018;13.742;2023-05-10T07:46:16;3.63;;;1.70;;
75698;SDS011;64313;51.018;13.742;2023-05-10T07:48:41;4.85;;;1.70;;
75698;SDS011;64313;51.018;13.742;2023-05-10T07:51:07;5.18;;;1.70;;
75698;SDS011;64313;51.018;13.742;2023-05-10T07:53:34;4.43;;;1.70;;
75698;SDS011;64313;51.018;13.742;2023-05-10T07:56:19;3.88;;;1.70;;
75698;SDS011;64313;51.018;13.742;2023-05-10T07:58:46;4.18;;;1.73;;
75698;SDS011;64313;51.018;13.742;2023-05-10T08:01:11;4.15;;;1.90;;
75698;SDS011;64313;51.018;13.742;2023-05-10T08:03:36;4.00;;;1.65;;
75698;SDS011;64313;51.018;13.742;2023-05-10T08:06:02;4.65;;;1.98;;
75698;SDS011;64313;51.018;13.742;2023-05-10T08:08:28;3.58;;;1.63;;
75698;SDS011;64313;51.018;13.742;2023-05-10T08:10:53;3.95;;;1.83;;
75698;SDS011;64313;51.018;13.742;2023-05-10T08:13:19;7.85;;;2.03;;
75698;SDS011;64313;51.018;13.742;2023-05-10T08:15:44;5.38;;;2.05;;
75698;SDS011;64313;51.018;13.742;2023-05-10T08:18:09;5.47;;;1.80;;
75698;SDS011;64313;51.018;13.742;2023-05-10T08:20:34;4.40;;;1.77;;
75698;SDS011;64313;51.018;13.742;2023-05-10T08:23:00;4.00;;;1.70;;
75698;SDS011;64313;51.018;13.742;2023-05-10T08:25:26;5.65;;;1.90;;
75698;SDS011;64313;51.018;13.742;2023-05-10T08:27:52;3.97;;;1.90;;
75698;SDS011;64313;51.018;13.742;2023-05-10T08:30:17;5.68;;;1.70;;
75698;SDS011;64313;51.018;13.742;2023-05-10T08:32:43;5.25;;;1.60;;
75698;SDS011;64313;51.018;13.742;2023-05-10T08:35:08;3.88;;;1.77;;
75698;SDS011;64313;51.018;13.742;2023-05-10T08:37:33;3.90;;;1.73;;
75698;SDS011;64313;51.018;13.742;2023-05-10T08:39:58;4.05;;;1.90;;
75698;SDS011;64313;51.018;13.742;2023-05-10T08:42:24;4.80;;;1.70;;
75698;SDS011;64313;51.018;13.742;2023-05-10T08:44:53;9.18;;;1.90;;
75698;SDS011;64313;51.018;13.742;2023-05-10T08:47:20;4.25;;;1.85;;
75698;SDS011;64313;51.018;13.742;2023-05-10T08:49:47;5.07;;;1.92;;
75698;SDS011;64313;51.018;13.742;2023-05-10T08:52:13;3.85;;;1.85;;
75698;SDS011;64313;51.018;13.742;2023-05-10T08:54:41;4.88;;;1.88;;
75698;SDS011;64313;51.018;13.742;2023-05-10T08:57:06;6.20;;;2.00;;
75698;SDS011;64313;51.018;13.742;2023-05-10T08:59:32;5.43;;;2.20;;
75698;SDS011;64313;51.018;13.742;2023-05-10T09:01:58;4.32;;;1.90;;
75698;SDS011;64313;51.018;13.742;2023-05-10T09:04:24;4.82;;;2.00;;
75698;SDS011;64313;51.018;13.742;2023-05-10T09:06:50;5.90;;;2.03;;
75698;SDS011;64313;51.018;13.742;2023-05-10T09:09:15;3.35;;;1.45;;
75698;SDS011;64313;51.018;13.742;2023-05-10T09:11:42;5.47;;;1.70;;
75698;SDS011;64313;51.018;13.742;2023-05-10T09:14:09;6.38;;;2.20;;
75698;SDS011;64313;51.018;13.742;2023-05-10T09:16:34;4.72;;;2.00;;
75698;SDS011;64313;51.018;13.742;2023-05-10T09:19:00;5.32;;;1.88;;
75698;SDS011;64313;51.018;13.742;2023-05-10T09:21:25;4.72;;;1.83;;
75698;SDS011;64313;51.018;13.742;2023-05-10T09:23:50;5.22;;;1.92;;
75698;SDS011;64313;51.018;13.742;2023-05-10T09:26:21;4.82;;;2.10;;
75698;SDS011;64313;51.018;13.742;2023-05-10T09:28:51;4.47;;;1.90;;
75698;SDS011;64313;51.018;13.742;2023-05-10T09:31:18;4.45;;;1.83;;
75698;SDS011;64313;51.018;13.742;2023-05-10T09:33:45;4.55;;;1.95;;
75698;SDS011;64313;51.018;13.742;2023-05-10T09:36:13;5.80;;;2.20;;
75698;SDS011;64313;51.018;13.742;2023-05-10T09:38:49;5.55;;;2.00;;
75698;SDS011;64313;51.018;13.742;2023-05-10T09:43:46;4.50;;;2.00;;
75698;SDS011;64313;51.018;13.742;2023-05-10T09:46:11;4.40;;;1.85;;
75698;SDS011;64313;51.018;13.742;2023-05-10T09:48:41;5.57;;;2.03;;
75698;SDS011;64313;51.018;13.742;2023-05-10T09:51:09;4.05;;;1.98;;
75698;SDS011;64313;51.018;13.742;2023-05-10T09:53:34;6.20;;;1.98;;
75698;SDS011;64313;51.018;13.742;2023-05-10T09:55:59;5.22;;;2.00;;
75698;SDS011;64313;51.018;13.742;2023-05-10T09:58:25;4.93;;;1.90;;
75698;SDS011;64313;51.018;13.742;2023-05-10T10:00:50;4.30;;;2.10;;
75698;SDS011;64313;51.018;13.742;2023-05-10T10:03:17;4.85;;;2.10;;
75698;SDS011;64313;51.018;13.742;2023-05-10T10:05:44;5.40;;;2.03;;
75698;SDS011;64313;51.018;13.742;2023-05-10T10:08:11;4.30;;;1.92;;
75698;SDS011;64313;51.018;13.742;2023-05-10T10:10:37;4.50;;;2.10;;
75698;SDS011;64313;51.018;13.742;2023-05-10T10:13:05;3.80;;;1.80;;
75698;SDS011;64313;51.018;13.742;2023-05-10T10:15:30;5.90;;;2.20;;
75698;SDS011;64313;51.018;13.742;2023-05-10T10:17:58;5.70;;;2.00;;
75698;SDS011;64313;51.018;13.742;2023-05-10T10:20:24;7.45;;;1.83;;
75698;SDS011;64313;51.018;13.742;2023-05-10T10:22:50;6.72;;;2.20;;
75698;SDS011;64313;51.018;13.742;2023-05-10T10:25:16;4.30;;;2.00;;
75698;SDS011;64313;51.018;13.742;2023-05-10T10:35:31;4.25;;;1.80;;
75698;SDS011;64313;51.018;13.742;2023-05-10T10:37:57;5.45;;;2.10;;
75698;SDS011;64313;51.018;13.742;2023-05-10T10:42:49;5.22;;;2.17;;
75698;SDS011;64313;51.018;13.742;2023-05-10T10:45:17;5.13;;;2.20;;
75698;SDS011;64313;51.018;13.742;2023-05-10T10:47:44;3.90;;;1.77;;
75698;SDS011;64313;51.018;13.742;2023-05-10T10:50:10;5.50;;;2.20;;
75698;SDS011;64313;51.018;13.742;2023-05-10T10:52:40;9.15;;;2.00;;
75698;SDS011;64313;51.018;13.742;2023-05-10T10:55:07;5.55;;;2.40;;
75698;SDS011;64313;51.018;13.742;2023-05-10T11:02:50;4.15;;;1.90;;
75698;SDS011;64313;51.018;13.742;2023-05-10T11:05:25;4.22;;;2.13;;
75698;SDS011;64313;51.018;13.742;2023-05-10T11:07:54;4.50;;;2.20;;
75698;SDS011;64313;51.018;13.742;2023-05-10T11:10:22;5.07;;;2.10;;
75698;SDS011;64313;51.018;13.742;2023-05-10T11:12:51;4.32;;;1.95;;
75698;SDS011;64313;51.018;13.742;2023-05-10T11:15:32;4.53;;;2.00;;
75698;SDS011;64313;51.018;13.742;2023-05-10T11:18:00;4.85;;;2.10;;
75698;SDS011;64313;51.018;13.742;2023-05-10T11:20:44;4.30;;;2.20;;
75698;SDS011;64313;51.018;13.742;2023-05-10T11:23:14;5.32;;;2.22;;
75698;SDS011;64313;51.018;13.742;2023-05-10T11:25:44;5.28;;;1.95;;
75698;SDS011;64313;51.018;13.742;2023-05-10T11:28:10;10.05;;;2.25;;
75698;SDS011;64313;51.018;13.742;2023-05-10T11:30:40;6.72;;;2.22;;
75698;SDS011;64313;51.018;13.742;2023-05-10T11:35:37;4.32;;;2.13;;
75698;SDS011;64313;51.018;13.742;2023-05-10T11:38:07;5.05;;;2.05;;
75698;SDS011;64313;51.018;13.742;2023-05-10T11:40:34;4.38;;;2.10;;
75698;SDS011;64313;51.018;13.742;2023-05-10T11:43:00;5.68;;;2.33;;
75698;SDS011;64313;51.018;13.742;2023-05-10T11:45:25;4.55;;;2.15;;
75698;SDS011;64313;51.018;13.742;2023-05-10T11:47:52;5.07;;;2.00;;
75698;SDS011;64313;51.018;13.742;2023-05-10T11:50:17;4.28;;;2.03;;
75698;SDS011;64313;51.018;13.742;2023-05-10T11:52:43;5.07;;;2.00;;
75698;SDS011;64313;51.018;13.742;2023-05-10T11:55:08;4.10;;;2.10;;
75698;SDS011;64313;51.018;13.742;2023-05-10T11:57:34;6.15;;;2.22;;
75698;SDS011;64313;51.018;13.742;2023-05-10T12:00:00;6.07;;;2.30;;
75698;SDS011;64313;51.018;13.742;2023-05-10T12:02:27;4.40;;;2.10;;
75698;SDS011;64313;51.018;13.742;2023-05-10T12:04:54;5.10;;;2.13;;
75698;SDS011;64313;51.018;13.742;2023-05-10T12:07:20;5.13;;;2.25;;
75698;SDS011;64313;51.018;13.742;2023-05-10T12:15:09;4.60;;;2.13;;
75698;SDS011;64313;51.018;13.742;2023-05-10T12:17:46;4.43;;;2.30;;
75698;SDS011;64313;51.018;13.742;2023-05-10T12:20:21;4.25;;;2.03;;
75698;SDS011;64313;51.018;13.742;2023-05-10T12:25:18;4.50;;;1.73;;
75698;SDS011;64313;51.018;13.742;2023-05-10T12:27:51;4.90;;;2.10;;
75698;SDS011;64313;51.018;13.742;2023-05-10T12:30:19;5.10;;;2.28;;
75698;SDS011;64313;51.018;13.742;2023-05-10T12:32:46;4.90;;;2.25;;
75698;SDS011;64313;51.018;13.742;2023-05-10T12:35:11;4.53;;;2.35;;
75698;SDS011;64313;51.018;13.742;2023-05-10T12:37:36;4.40;;;2.20;;
75698;SDS011;64313;51.018;13.742;2023-05-10T12:40:07;5.07;;;2.17;;
75698;SDS011;64313;51.018;13.742;2023-05-10T12:42:34;4.45;;;2.20;;
75698;SDS011;64313;51.018;13.742;2023-05-10T12:45:01;4.32;;;2.10;;
75698;SDS011;64313;51.018;13.742;2023-05-10T12:47:27;6.45;;;2.50;;
75698;SDS011;64313;51.018;13.742;2023-05-10T12:49:52;4.55;;;2.33;;
75698;SDS011;64313;51.018;13.742;2023-05-10T12:52:18;4.28;;;1.98;;
75698;SDS011;64313;51.018;13.742;2023-05-10T12:54:43;7.32;;;2.20;;
75698;SDS011;64313;51.018;13.742;2023-05-10T12:57:08;5.60;;;2.33;;
75698;SDS011;64313;51.018;13.742;2023-05-10T12:59:34;4.68;;;2.03;;
75698;SDS011;64313;51.018;13.742;2023-05-10T13:01:59;6.47;;;2.50;;
75698;SDS011;64313;51.018;13.742;2023-05-10T13:04:24;4.85;;;2.10;;
75698;SDS011;64313;51.018;13.742;2023-05-10T13:06:50;4.53;;;2.10;;
75698;SDS011;64313;51.018;13.742;2023-05-10T13:09:15;5.80;;;2.40;;
75698;SDS011;64313;51.018;13.742;2023-05-10T13:11:41;3.83;;;2.05;;
75698;SDS011;64313;51.018;13.742;2023-05-10T13:14:06;5.05;;;2.30;;
75698;SDS011;64313;51.018;13.742;2023-05-10T13:16:31;4.63;;;2.03;;
75698;SDS011;64313;51.018;13.742;2023-05-10T13:18:57;5.05;;;2.20;;
75698;SDS011;64313;51.018;13.742;2023-05-10T13:21:23;6.15;;;2.03;;
75698;SDS011;64313;51.018;13.742;2023-05-10T13:23:50;3.80;;;1.90;;
75698;SDS011;64313;51.018;13.742;2023-05-10T13:26:15;5.35;;;2.15;;
75698;SDS011;64313;51.018;13.742;2023-05-10T13:28:40;4.32;;;2.00;;
75698;SDS011;64313;51.018;13.742;2023-05-10T13:31:06;4.68;;;2.00;;
75698;SDS011;64313;51.018;13.742;2023-05-10T13:33:31;4.47;;;2.08;;
75698;SDS011;64313;51.018;13.742;2023-05-10T13:35:56;5.68;;;2.00;;
75698;SDS011;64313;51.018;13.742;2023-05-10T13:38:22;4.30;;;2.10;;
75698;SDS011;64313;51.018;13.742;2023-05-10T13:40:47;4.68;;;2.20;;
75698;SDS011;64313;51.018;13.742;2023-05-10T13:43:13;3.80;;;1.90;;
75698;SDS011;64313;51.018;13.742;2023-05-10T13:45:38;5.82;;;2.25;;
75698;SDS011;64313;51.018;13.742;2023-05-10T13:48:04;4.20;;;2.03;;
75698;SDS011;64313;51.018;13.742;2023-05-10T13:50:29;4.25;;;2.10;;
75698;SDS011;64313;51.018;13.742;2023-05-10T13:52:55;4.75;;;2.00;;
75698;SDS011;64313;51.018;13.742;2023-05-10T13:55:21;5.35;;;2.03;;
75698;SDS011;64313;51.018;13.742;2023-05-10T13:57:46;4.72;;;2.20;;
75698;SDS011;64313;51.018;13.742;2023-05-10T14:00:12;4.25;;;1.83;;
75698;SDS011;64313;51.018;13.742;2023-05-10T14:02:38;3.75;;;1.83;;
75698;SDS011;64313;51.018;13.742;2023-05-10T14:05:03;4.25;;;2.03;;
75698;SDS011;64313;51.018;13.742;2023-05-10T14:07:29;3.58;;;1.75;;
75698;SDS011;64313;51.018;13.742;2023-05-10T14:09:54;4.45;;;1.80;;
75698;SDS011;64313;51.018;13.742;2023-05-10T14:12:20;4.32;;;2.08;;
75698;SDS011;64313;51.018;13.742;2023-05-10T14:14:45;4.00;;;1.92;;
75698;SDS011;64313;51.018;13.742;2023-05-10T14:17:10;4.18;;;2.03;;
75698;SDS011;64313;51.018;13.742;2023-05-10T14:19:36;4.47;;;2.10;;
75698;SDS011;64313;51.018;13.742;2023-05-10T14:22:01;3.85;;;1.92;;
75698;SDS011;64313;51.018;13.742;2023-05-10T14:24:26;4.43;;;1.98;;
75698;SDS011;64313;51.018;13.742;2023-05-10T14:26:52;5.07;;;2.03;;
75698;SDS011;64313;51.018;13.742;2023-05-10T14:29:19;7.63;;;2.10;;
75698;SDS011;64313;51.018;13.742;2023-05-10T14:31:45;4.00;;;1.90;;
75698;SDS011;64313;51.018;13.742;2023-05-10T14:34:10;4.13;;;1.80;;
75698;SDS011;64313;51.018;13.742;2023-05-10T14:36:35;5.47;;;1.88;;
75698;SDS011;64313;51.018;13.742;2023-05-10T14:39:01;4.45;;;1.77;;
75698;SDS011;64313;51.018;13.742;2023-05-10T14:41:26;4.13;;;1.95;;
75698;SDS011;64313;51.018;13.742;2023-05-10T14:43:52;5.80;;;1.80;;
75698;SDS011;64313;51.018;13.742;2023-05-10T14:46:17;4.28;;;1.95;;
75698;SDS011;64313;51.018;13.742;2023-05-10T14:48:43;4.00;;;2.00;;
75698;SDS011;64313;51.018;13.742;2023-05-10T14:51:08;3.80;;;1.73;;
75698;SDS011;64313;51.018;13.742;2023-05-10T14:53:33;6.00;;;1.90;;
75698;SDS011;64313;51.018;13.742;2023-05-10T14:55:59;4.95;;;1.80;;
75698;SDS011;64313;51.018;13.742;2023-05-10T14:58:26;3.97;;;1.90;;
75698;SDS011;64313;51.018;13.742;2023-05-10T15:00:51;5.85;;;1.90;;
75698;SDS011;64313;51.018;13.742;2023-05-10T15:03:17;5.55;;;2.17;;
75698;SDS011;64313;51.018;13.742;2023-05-10T15:05:42;5.00;;;2.00;;
75698;SDS011;64313;51.018;13.742;2023-05-10T15:08:08;5.50;;;2.22;;
75698;SDS011;64313;51.018;13.742;2023-05-10T15:10:34;6.15;;;2.38;;
75698;SDS011;64313;51.018;13.742;2023-05-10T15:13:00;5.93;;;1.92;;
75698;SDS011;64313;51.018;13.742;2023-05-10T15:15:25;4.63;;;1.80;;
75698;SDS011;64313;51.018;13.742;2023-05-10T15:17:51;4.57;;;2.10;;